Hot Springs Village, Arkansas
Current Conditions -  °F | °C
As of 7:53 PM on Wednesday 26 Nov 2014 (Local Time) from KHOT Reporting Station
Clear Clear  
Wind Chill: 47°   Ceiling: Unl
Heat Index: 49°   Visibility: 10mi
Dew Point: 29°   Wind: 5mph
Humidity: 46%   Direction: 270°W
Pressure: 30.21"   Gusts: NA
Location:  34.66°N, 93.05°W
Report Text: KHOT 270153Z AUTO 27004KT 10SM CLR 09/M02 A3021 RMK AO2 SLP230 T00941017
Loading
Personal Weather Stations






























Interactive Weather Map New forecast layout! Learn more

10-Day Weather Forecast

Advertisements
Track Severe Weather on mobile